Time;durP1;ratioP1;P1;durP2;ratioP2;P2;SDS_P1;SDS_P2;PMS_P1;PMS_P2;Temp;Humidity;BMP_temperature;BMP_pressure;BME280_temperature;BME280_humidity;BME280_pressure;Samples;Min_cycle;Max_cycle;Signal;HPM_P1;HPM_P2
2022/12/25 00:00:39;;;;;;;34.78;12.93;;;3.90;99.90;;;;;;5045506;28;20323;-77
2022/12/25 00:03:05;;;;;;;41.50;16.80;;;3.90;99.90;;;;;;5028973;28;20029;-76
2022/12/25 00:05:31;;;;;;;54.22;21.75;;;3.90;99.90;;;;;;5030120;28;20030;-77
2022/12/25 00:07:56;;;;;;;;;;;4.00;99.90;;;;;;5029115;28;20033;-77
2022/12/25 00:10:22;;;;;;;24.25;7.28;;;4.00;99.90;;;;;;5030897;28;19962;-78
2022/12/25 00:12:47;;;;;;;;;;;4.00;99.90;;;;;;5050500;28;20061;-77
2022/12/25 00:15:13;;;;;;;7.45;2.33;;;4.10;99.90;;;;;;5033367;28;19968;-77
2022/12/25 00:17:39;;;;;;;;;;;4.30;99.90;;;;;;5034226;28;20030;-77
2022/12/25 00:20:05;;;;;;;13.98;3.78;;;4.40;99.90;;;;;;5033841;28;19909;-77
2022/12/25 00:22:31;;;;;;;11.55;2.83;;;4.50;99.90;;;;;;5050098;28;20088;-77
2022/12/25 00:24:56;;;;;;;;;;;4.60;99.90;;;;;;5034166;28;20486;-77
2022/12/25 00:27:22;;;;;;;5.55;1.85;;;4.70;99.90;;;;;;5033473;28;19909;-78
2022/12/25 00:29:47;;;;;;;;;;;4.90;99.90;;;;;;5050349;28;20037;-77
2022/12/25 00:32:13;;;;;;;12.45;2.15;;;5.10;99.90;;;;;;5033149;28;19913;-77
2022/12/25 00:34:39;;;;;;;;;;;5.20;99.90;;;;;;5050481;28;20025;-77
2022/12/25 00:37:04;;;;;;;16.98;5.50;;;5.20;99.90;;;;;;5032878;28;19917;-77
2022/12/25 00:39:30;;;;;;;;;;;5.30;99.90;;;;;;5033117;28;20437;-78
2022/12/25 00:42:41;;;;;;;11.65;4.20;;;5.30;99.90;;;;;;5033913;28;20432;-77
2022/12/25 00:44:41;;;;;;;12.93;4.13;;;5.40;99.90;;;;;;5026072;28;20723;-77
2022/12/25 00:47:07;;;;;;;;;;;5.40;99.90;;;;;;5033094;28;20026;-77
2022/12/25 00:49:32;;;;;;;9.77;2.97;;;5.40;99.90;;;;;;5032818;28;20353;-77
2022/12/25 00:51:58;;;;;;;;;;;5.40;99.90;;;;;;5033242;28;20596;-77
2022/12/25 00:54:24;;;;;;;10.60;2.53;;;5.50;99.90;;;;;;5049809;28;20363;-77
2022/12/25 00:56:49;;;;;;;;;;;5.60;99.90;;;;;;5034509;28;20059;-78
2022/12/25 00:59:15;;;;;;;8.60;2.00;;;5.70;99.90;;;;;;5033005;28;19952;-77
2022/12/25 01:01:41;;;;;;;;;;;5.80;99.90;;;;;;5033476;28;20068;-77
2022/12/25 01:04:07;;;;;;;6.93;1.40;;;6.00;99.90;;;;;;5034527;28;19992;-77
2022/12/25 01:06:33;;;;;;;7.82;2.00;;;6.00;99.90;;;;;;5033278;28;20571;-77
2022/12/25 01:11:43;;;;;;;9.38;2.15;;;6.30;99.90;;;;;;5034662;28;19920;-77
2022/12/25 01:14:09;;;;;;;;;;;6.30;99.90;;;;;;5035961;28;20049;-77
2022/12/25 01:16:35;;;;;;;12.68;5.40;;;6.30;99.90;;;;;;5035594;28;19916;-77
2022/12/25 01:19:01;;;;;;;;;;;6.30;99.90;;;;;;5032814;28;20025;-77
2022/12/25 01:21:27;;;;;;;18.77;7.32;;;6.20;99.90;;;;;;5032615;28;20377;-77
2022/12/25 01:23:53;;;;;;;22.67;7.80;;;6.10;99.90;;;;;;5030713;28;20164;-77
2022/12/25 01:26:19;;;;;;;;;;;5.90;99.90;;;;;;5031169;28;20037;-77
2022/12/25 01:28:45;;;;;;;25.33;8.85;;;5.70;99.90;;;;;;5030943;28;20014;-77
2022/12/25 01:31:12;;;;;;;;;;;5.60;99.90;;;;;;5031252;28;20490;-77
2022/12/25 01:33:39;;;;;;;12.60;3.85;;;5.40;99.90;;;;;;5030706;28;20036;-77
2022/12/25 01:36:25;;;;;;;8.82;3.85;;;5.30;99.90;;;;;;5030596;28;20135;-77
2022/12/25 01:38:52;;;;;;;14.48;5.70;;;5.30;99.90;;;;;;5031157;28;20036;-77
2022/12/25 01:41:20;;;;;;;19.98;6.45;;;5.20;99.90;;;;;;5031309;28;20030;-77
2022/12/25 01:44:33;;;;;;;21.63;7.40;;;5.10;99.90;;;;;;5033014;28;20022;-78
2022/12/25 01:46:59;;;;;;;21.65;6.80;;;5.00;99.90;;;;;;5031733;28;20529;-77
2022/12/25 01:49:25;;;;;;;;;;;5.00;99.90;;;;;;5033498;28;20032;-77
2022/12/25 01:52:01;;;;;;;26.70;9.65;;;5.00;99.90;;;;;;5048232;28;19905;-77
2022/12/25 01:54:34;;;;;;;22.52;8.88;;;4.90;99.90;;;;;;5031620;28;20116;-77
2022/12/25 01:57:04;;;;;;;11.45;3.63;;;4.90;99.90;;;;;;5032598;28;20227;-77
2022/12/25 01:59:30;;;;;;;4.53;1.25;;;4.90;99.90;;;;;;5033444;28;20029;-76
2022/12/25 02:01:56;;;;;;;;;;;5.00;99.90;;;;;;5032723;28;20026;-78
2022/12/25 02:04:37;;;;;;;15.32;1.92;;;5.10;99.90;;;;;;5032129;28;19916;-77
2022/12/25 02:07:04;;;;;;;10.80;1.42;;;5.20;99.90;;;;;;5033418;28;20048;-78
2022/12/25 02:09:30;;;;;;;7.00;0.98;;;5.40;99.90;;;;;;5032715;28;20040;-77
2022/12/25 02:11:56;;;;;;;8.73;1.95;;;5.60;99.90;;;;;;5033409;28;20041;-77
2022/12/25 02:14:23;;;;;;;;;;;5.90;99.90;;;;;;5031263;28;20057;-77
2022/12/25 02:16:53;;;;;;;8.00;1.30;;;6.10;99.90;;;;;;5029484;28;19917;-77
2022/12/25 02:19:40;;;;;;;3.70;1.30;;;6.30;99.90;;;;;;5030092;28;20051;-77
2022/12/25 02:22:09;;;;;;;13.73;4.43;;;6.40;99.90;;;;;;5030535;28;20043;-78
2022/12/25 02:24:35;;;;;;;16.77;6.63;;;6.40;99.90;;;;;;5030539;28;20128;-78
2022/12/25 02:27:07;;;;;;;;;;;6.20;99.90;;;;;;5031644;28;20113;-77
2022/12/25 02:29:41;;;;;;;15.88;5.65;;;6.00;99.90;;;;;;5031165;28;20284;-77
2022/12/25 02:32:13;;;;;;;15.18;5.85;;;5.80;99.90;;;;;;5032884;28;20021;-78
2022/12/25 02:34:57;;;;;;;12.70;3.75;;;5.60;99.90;;;;;;5030794;28;20057;-77
2022/12/25 02:37:36;;;;;;;11.45;4.15;;;5.50;99.90;;;;;;5032329;28;20041;-77
2022/12/25 02:40:27;;;;;;;13.38;6.03;;;5.40;99.90;;;;;;5033240;28;20022;-76
2022/12/25 03:08:41;;;;;;;20.88;7.97;;;5.50;99.90;;;;;;5030043;28;20033;-77
2022/12/25 03:16:51;;;;;;;7.88;1.40;;;5.40;99.90;;;;;;5030057;28;20045;-77
2022/12/25 03:27:41;;;;;;;13.32;2.10;;;5.40;99.90;;;;;;5030380;28;20036;-77
2022/12/25 03:33:04;;;;;;;5.80;1.35;;;5.50;99.90;;;;;;5030995;28;20051;-77
2022/12/25 03:35:44;;;;;;;10.88;2.47;;;5.60;99.90;;;;;;5030254;28;20033;-77
2022/12/25 04:37:26;;;;;;;38.05;23.17;;;5.10;99.90;;;;;;5029313;28;20533;-77
2022/12/25 04:39:52;;;;;;;;;;;5.10;99.90;;;;;;5028293;28;20030;-77
2022/12/25 04:42:17;;;;;;;155.10;84.00;;;5.10;99.90;;;;;;5028140;28;20297;-77
2022/12/25 04:44:43;;;;;;;;;;;5.10;99.90;;;;;;5045352;28;20029;-78
2022/12/25 04:47:08;;;;;;;10.25;6.13;;;5.10;99.90;;;;;;5029645;28;19905;-79
2022/12/25 04:49:34;;;;;;;;;;;5.10;99.90;;;;;;5045265;28;20026;-77
2022/12/25 04:52:00;;;;;;;7.22;3.55;;;5.10;99.90;;;;;;5029798;28;19933;-77
2022/12/25 04:54:25;;;;;;;;;;;5.00;99.90;;;;;;5045582;28;20487;-77
2022/12/25 04:56:51;;;;;;;6.28;2.15;;;5.00;99.90;;;;;;5029019;28;19916;-77
2022/12/25 04:59:16;;;;;;;;;;;5.00;99.90;;;;;;5033159;28;20578;-77
2022/12/25 05:01:42;;;;;;;5.00;1.33;;;4.90;99.90;;;;;;5033756;28;20385;-77
2022/12/25 05:04:08;;;;;;;;;;;4.90;99.90;;;;;;5034676;28;20501;-77
2022/12/25 05:06:33;;;;;;;7.72;1.75;;;4.90;99.90;;;;;;5032830;28;19975;-78
2022/12/25 05:08:59;;;;;;;;;;;4.80;99.90;;;;;;5034720;28;20030;-78
2022/12/25 05:11:25;;;;;;;7.00;2.33;;;4.80;99.90;;;;;;5033078;28;20407;-77
2022/12/25 05:13:50;;;;;;;;;;;4.70;99.90;;;;;;5034411;28;20067;-77
2022/12/25 05:16:18;;;;;;;10.45;3.05;;;4.70;99.90;;;;;;5033675;28;19959;-77
2022/12/25 05:18:46;;;;;;;14.88;5.88;;;4.70;99.90;;;;;;5033390;28;20041;-77
2022/12/25 05:21:12;;;;;;;50.45;22.85;;;4.70;99.90;;;;;;5033295;28;20136;-78
2022/12/25 05:23:38;;;;;;;;;;;4.70;99.90;;;;;;5033146;28;20176;-77
2022/12/25 05:26:05;;;;;;;29.55;11.80;;;4.70;99.90;;;;;;5034372;28;20011;-77
2022/12/25 05:28:32;;;;;;;29.50;14.45;;;4.70;99.90;;;;;;5033178;28;20106;-76
2022/12/25 05:30:58;;;;;;;27.77;11.77;;;4.60;99.90;;;;;;5035071;28;20037;-77
2022/12/25 05:33:23;;;;;;;;;;;4.60;99.90;;;;;;5035562;28;20033;-77
2022/12/25 05:35:49;;;;;;;10.23;5.22;;;4.50;99.90;;;;;;5035999;28;19916;-77
2022/12/25 05:38:15;;;;;;;;;;;4.50;99.90;;;;;;5033684;28;20034;-77
2022/12/25 05:40:40;;;;;;;8.65;3.78;;;4.50;99.90;;;;;;5034904;28;19909;-78
2022/12/25 05:43:06;;;;;;;;;;;4.50;99.90;;;;;;5036702;28;20036;-76
2022/12/25 05:45:32;;;;;;;9.05;4.07;;;4.50;99.90;;;;;;5033660;28;19972;-77
2022/12/25 05:47:58;;;;;;;;;;;4.50;99.90;;;;;;5032114;28;20033;-77
2022/12/25 05:50:23;;;;;;;12.88;3.17;;;4.60;99.90;;;;;;5032355;28;19913;-77
2022/12/25 05:52:49;;;;;;;;;;;4.70;99.90;;;;;;5031571;28;20053;-77
2022/12/25 05:55:15;;;;;;;11.90;5.90;;;4.70;99.90;;;;;;5030774;28;19908;-77
2022/12/25 05:57:43;;;;;;;;;;;4.70;99.90;;;;;;5032831;28;20033;-77
2022/12/25 06:00:09;;;;;;;10.15;4.85;;;4.70;99.90;;;;;;5031538;28;19909;-77
2022/12/25 06:02:35;;;;;;;9.73;3.50;;;4.70;99.90;;;;;;5032614;28;20034;-77
2022/12/25 06:05:03;;;;;;;19.30;10.38;;;4.80;99.90;;;;;;5033446;28;20104;-75
2022/12/25 06:07:29;;;;;;;20.75;13.45;;;4.70;99.90;;;;;;5032397;28;20033;-77
2022/12/25 06:09:54;;;;;;;13.00;5.03;;;4.60;99.90;;;;;;5032055;28;20025;-77
2022/12/25 06:12:20;;;;;;;;;;;4.60;99.90;;;;;;5032741;28;20087;-76
2022/12/25 06:14:46;;;;;;;6.25;2.17;;;4.50;99.90;;;;;;5034012;28;19940;-77
2022/12/25 06:17:11;;;;;;;;;;;4.40;99.90;;;;;;5032502;28;20072;-76
2022/12/25 06:19:37;;;;;;;7.85;1.90;;;4.50;99.90;;;;;;5031116;28;19913;-77
2022/12/25 06:22:02;;;;;;;;;;;4.50;99.90;;;;;;5048993;28;20044;-77
2022/12/25 06:24:28;;;;;;;14.35;3.72;;;4.60;99.90;;;;;;5031633;28;19909;-77
2022/12/25 06:26:54;;;;;;;;;;;4.60;99.90;;;;;;5033511;28;20036;-77
2022/12/25 06:29:19;;;;;;;51.67;22.77;;;4.60;99.90;;;;;;5032626;28;19952;-78
2022/12/25 06:31:45;;;;;;;;;;;4.60;99.90;;;;;;5032052;28;20030;-77
2022/12/25 06:34:11;;;;;;;242.73;97.07;;;4.60;99.90;;;;;;5033296;28;19959;-76
2022/12/25 06:36:37;;;;;;;237.27;98.53;;;4.60;99.90;;;;;;5031330;28;20053;-77
2022/12/25 06:39:02;;;;;;;;;;;4.60;99.90;;;;;;5033595;28;20052;-77
2022/12/25 06:41:29;;;;;;;356.20;148.40;;;4.50;99.90;;;;;;5031780;28;20289;-77
2022/12/25 06:43:57;;;;;;;317.80;131.45;;;4.50;99.90;;;;;;5031209;28;20040;-77
2022/12/25 06:46:24;;;;;;;401.27;176.98;;;4.50;99.90;;;;;;5031947;28;20029;-78
2022/12/25 06:48:51;;;;;;;364.48;156.05;;;4.50;99.90;;;;;;5032119;28;20033;-77
2022/12/25 06:51:26;;;;;;;372.02;174.23;;;4.50;99.90;;;;;;5033151;28;20091;-78
2022/12/25 06:53:52;;;;;;;433.73;222.40;;;4.50;99.90;;;;;;5031233;28;20092;-78
2022/12/25 06:56:24;;;;;;;248.07;115.10;;;4.50;99.90;;;;;;5048799;28;20044;-78
2022/12/25 06:58:56;;;;;;;213.75;100.75;;;4.50;99.90;;;;;;5029952;28;20456;-77
2022/12/25 07:01:34;;;;;;;267.08;133.40;;;4.50;99.90;;;;;;5033523;28;20037;-77
2022/12/25 07:04:05;;;;;;;195.98;104.78;;;4.40;99.90;;;;;;5033790;28;20025;-78
2022/12/25 07:06:31;;;;;;;97.68;54.75;;;4.50;99.90;;;;;;5049127;28;20056;-76
2022/12/25 07:08:57;;;;;;;;;;;4.50;99.90;;;;;;5032479;28;20446;-77
2022/12/25 07:11:23;;;;;;;57.47;25.33;;;4.50;99.90;;;;;;5032437;28;19909;-77
2022/12/25 07:13:49;;;;;;;82.00;47.28;;;4.60;99.90;;;;;;5034327;28;20018;-78
2022/12/25 07:16:15;;;;;;;;;;;4.80;99.90;;;;;;5047881;28;20180;-78
2022/12/25 07:18:41;;;;;;;42.70;24.35;;;4.90;99.90;;;;;;5028757;28;19909;-78
2022/12/25 07:21:09;;;;;;;26.38;13.88;;;5.00;99.90;;;;;;5028551;28;20030;-77
2022/12/25 07:23:35;;;;;;;30.25;11.65;;;5.30;99.90;;;;;;5028326;28;20025;-78
2022/12/25 07:26:00;;;;;;;;;;;5.50;99.90;;;;;;5030106;28;20032;-77
2022/12/25 07:28:27;;;;;;;27.42;11.65;;;5.70;99.90;;;;;;5028191;28;20491;-77
2022/12/25 07:30:52;;;;;;;29.35;12.88;;;5.90;99.90;;;;;;5028095;28;20120;-76
2022/12/25 07:33:18;;;;;;;;;;;6.10;99.90;;;;;;5028298;28;20116;-77
2022/12/25 07:35:44;;;;;;;53.85;16.83;;;6.30;99.90;;;;;;5029855;28;19916;-77
2022/12/25 07:38:10;;;;;;;;;;;6.40;99.90;;;;;;5029367;28;20175;-77
2022/12/25 07:40:35;;;;;;;40.00;18.05;;;6.50;99.90;;;;;;5029042;28;19909;-77
2022/12/25 07:43:01;;;;;;;;;;;6.70;99.90;;;;;;5029835;28;20033;-77
2022/12/25 07:45:27;;;;;;;30.27;12.65;;;6.90;99.90;;;;;;5046259;28;20000;-77
2022/12/25 07:47:52;;;;;;;;;;;7.10;99.90;;;;;;5030906;28;20165;-77
2022/12/25 07:50:18;;;;;;;27.55;12.00;;;7.50;99.90;;;;;;5029781;28;20374;-77
2022/12/25 07:52:45;;;;;;;;;;;7.70;99.90;;;;;;5031410;28;20124;-78
2022/12/25 07:55:12;;;;;;;42.60;18.80;;;7.80;99.90;;;;;;5030196;28;20355;-78
2022/12/25 07:57:38;;;;;;;57.45;35.50;;;7.90;99.90;;;;;;5029887;28;20061;-77
2022/12/25 08:00:04;;;;;;;;;;;8.10;99.90;;;;;;5030154;28;20061;-77
2022/12/25 08:02:30;;;;;;;48.53;29.00;;;8.40;99.90;;;;;;5029228;28;19924;-78
2022/12/25 08:04:55;;;;;;;;;;;8.60;99.90;;;;;;5029370;28;20033;-77
2022/12/25 08:07:22;;;;;;;41.15;21.50;;;9.00;99.90;;;;;;5029683;28;19945;-78
2022/12/25 08:09:47;;;;;;;41.90;21.83;;;9.30;99.90;;;;;;5030467;28;20026;-78
2022/12/25 08:12:13;;;;;;;;;;;9.60;99.90;;;;;;5030761;28;20496;-77
2022/12/25 08:14:39;;;;;;;37.53;20.73;;;9.90;99.90;;;;;;5028973;28;19921;-78
2022/12/25 08:17:04;;;;;;;;;;;10.20;99.90;;;;;;5028098;28;20128;-78
2022/12/25 08:19:30;;;;;;;29.92;16.42;;;10.50;99.90;;;;;;5026904;28;19909;-77
2022/12/25 08:21:55;;;;;;;;;;;10.70;99.90;;;;;;5027299;28;20129;-79
2022/12/25 08:24:22;;;;;;;23.60;12.55;;;11.10;99.90;;;;;;5028163;28;19991;-78
2022/12/25 08:26:48;;;;;;;19.25;11.48;;;11.30;99.90;;;;;;5027110;28;20056;-77
2022/12/25 08:29:14;;;;;;;;;;;11.60;99.90;;;;;;5027171;28;20037;-78
2022/12/25 08:31:42;;;;;;;34.55;18.88;;;11.70;99.90;;;;;;5026750;28;19915;-76
2022/12/25 08:34:08;;;;;;;33.90;16.30;;;11.70;99.90;;;;;;5030576;28;20049;-78
2022/12/25 08:36:34;;;;;;;18.48;8.65;;;11.70;99.90;;;;;;5031793;28;20052;-80
2022/12/25 08:39:00;;;;;;;;;;;11.60;99.90;;;;;;5030920;28;20037;-78
2022/12/25 08:41:26;;;;;;;14.70;5.78;;;11.50;99.90;;;;;;5032046;28;19905;-79
2022/12/25 08:43:52;;;;;;;17.00;6.95;;;11.40;99.90;;;;;;5030463;28;20117;-78
2022/12/25 08:46:18;;;;;;;10.65;5.70;;;11.30;99.90;;;;;;5030232;28;20067;-77
2022/12/25 08:48:45;;;;;;;19.80;8.75;;;11.30;99.90;;;;;;5031835;28;20021;-78
2022/12/25 08:51:13;;;;;;;28.65;15.85;;;11.30;99.90;;;;;;5030758;28;20029;-78
2022/12/25 08:53:40;;;;;;;25.20;11.68;;;11.30;99.90;;;;;;5030258;28;20030;-78
2022/12/25 08:56:06;;;;;;;25.77;13.25;;;11.30;99.90;;;;;;5030328;28;20045;-77
2022/12/25 08:58:33;;;;;;;;;;;11.40;99.90;;;;;;5032335;28;20028;-78
2022/12/25 09:00:59;;;;;;;12.38;6.18;;;11.40;99.90;;;;;;5031173;28;19915;-77
2022/12/25 09:03:25;;;;;;;;;;;11.50;99.90;;;;;;5047279;28;20140;-78
2022/12/25 09:05:52;;;;;;;11.35;5.25;;;11.40;99.90;;;;;;5029929;28;20000;-77
2022/12/25 09:08:20;;;;;;;11.88;7.45;;;11.50;99.90;;;;;;5030194;28;20033;-78
2022/12/25 09:10:46;;;;;;;19.80;12.98;;;11.60;99.90;;;;;;5031640;28;20022;-78
2022/12/25 09:13:12;;;;;;;9.23;3.97;;;11.60;99.90;;;;;;5030004;28;20036;-76
2022/12/25 09:15:38;;;;;;;;;;;11.60;99.90;;;;;;5031207;28;20042;-76
2022/12/25 09:18:04;;;;;;;8.00;3.47;;;11.60;99.90;;;;;;5029852;28;19909;-77
2022/12/25 09:20:29;;;;;;;;;;;11.60;99.90;;;;;;5031562;28;20022;-78
2022/12/25 09:22:55;;;;;;;10.38;4.05;;;11.60;99.90;;;;;;5029599;28;20024;-78
2022/12/25 09:25:20;;;;;;;;;;;11.60;99.90;;;;;;5030324;28;20473;-78
2022/12/25 09:27:46;;;;;;;10.88;6.07;;;11.50;99.90;;;;;;5029456;28;19917;-77
2022/12/25 09:30:12;;;;;;;;;;;11.50;99.90;;;;;;5029929;28;20030;-77
2022/12/25 09:32:39;;;;;;;17.58;10.73;;;11.40;99.90;;;;;;5031156;28;19912;-77
2022/12/25 09:35:06;;;;;;;21.38;11.35;;;11.40;99.90;;;;;;5030836;28;20506;-77
2022/12/25 09:37:31;;;;;;;20.42;12.73;;;11.30;99.90;;;;;;5029354;28;20045;-77
2022/12/25 09:39:57;;;;;;;;;;;11.30;99.90;;;;;;5031240;28;20025;-77
2022/12/25 09:42:27;;;;;;;35.95;23.48;;;11.20;99.90;;;;;;5029632;28;19962;-79
2022/12/25 09:44:58;;;;;;;26.33;15.45;;;11.10;99.90;;;;;;5030651;28;20028;-77
2022/12/25 09:47:28;;;;;;;22.23;10.15;;;11.00;99.90;;;;;;5030459;28;20025;-77
2022/12/25 09:50:05;;;;;;;10.23;4.50;;;10.90;99.90;;;;;;5029477;28;20068;-78
2022/12/25 09:52:53;;;;;;;12.98;5.85;;;10.80;99.90;;;;;;5029353;28;20025;-78
2022/12/25 09:55:25;;;;;;;13.13;5.95;;;10.60;99.90;;;;;;5030256;28;20041;-77
2022/12/25 09:57:54;;;;;;;27.85;12.77;;;10.60;99.90;;;;;;5030529;28;20494;-78
2022/12/25 10:00:23;;;;;;;19.55;10.38;;;10.50;99.90;;;;;;5030825;28;20028;-78
2022/12/25 10:03:15;;;;;;;13.95;5.95;;;10.40;99.90;;;;;;5029554;28;20268;-78
2022/12/25 10:06:06;;;;;;;17.00;7.45;;;10.40;99.90;;;;;;5029896;28;20025;-77
2022/12/25 10:08:40;;;;;;;10.80;5.88;;;10.40;99.90;;;;;;5031370;28;20047;-77
2022/12/25 10:11:17;;;;;;;24.88;10.00;;;10.30;99.90;;;;;;5032596;28;20108;-77
2022/12/25 10:14:07;;;;;;;29.95;13.60;;;10.30;99.90;;;;;;5030446;28;20080;-78
2022/12/25 10:16:36;;;;;;;35.08;16.42;;;10.30;99.90;;;;;;5028915;28;20506;-77
2022/12/25 10:19:48;;;;;;;32.15;16.23;;;10.40;99.90;;;;;;5030441;28;20044;-77
2022/12/25 10:22:22;;;;;;;24.15;11.38;;;10.50;99.90;;;;;;4988164;28;20042;-78
2022/12/25 10:24:51;;;;;;;17.58;7.38;;;10.50;99.90;;;;;;4971909;28;20037;-78
2022/12/25 10:27:31;;;;;;;24.65;9.02;;;10.60;99.90;;;;;;5004787;28;20044;-77
2022/12/25 10:29:58;;;;;;;15.85;7.60;;;10.80;99.90;;;;;;5028386;28;20068;-77
2022/12/25 10:32:23;;;;;;;16.85;7.60;;;10.80;99.90;;;;;;5028703;28;20029;-77
2022/12/25 10:34:49;;;;;;;;;;;10.90;99.90;;;;;;5045599;28;20025;-78
2022/12/25 10:37:16;;;;;;;16.63;7.35;;;10.90;99.90;;;;;;5029952;28;20388;-77
2022/12/25 10:39:42;;;;;;;19.80;6.72;;;10.90;99.90;;;;;;5030234;28;20030;-76
2022/12/25 10:42:37;;;;;;;17.50;9.45;;;10.90;99.90;;;;;;5028966;28;20043;-76
2022/12/25 10:45:06;;;;;;;18.30;8.60;;;10.90;99.90;;;;;;5031372;28;20030;-76
2022/12/25 10:47:39;;;;;;;19.90;8.25;;;10.80;99.90;;;;;;5046790;28;20029;-78
2022/12/25 10:50:16;;;;;;;16.67;6.70;;;10.70;99.90;;;;;;5030767;28;20124;-77
2022/12/25 10:52:58;;;;;;;14.07;5.70;;;10.60;99.90;;;;;;5031626;28;20080;-77
2022/12/25 10:55:27;;;;;;;12.10;5.40;;;10.60;99.90;;;;;;5029524;28;20037;-76
2022/12/25 10:57:53;;;;;;;13.77;6.20;;;10.50;99.90;;;;;;5030465;28;20061;-77
2022/12/25 11:00:23;;;;;;;;;;;10.50;99.90;;;;;;5029727;28;20667;-77
2022/12/25 11:02:49;;;;;;;14.25;5.78;;;10.50;99.90;;;;;;5028456;28;19916;-76
2022/12/25 11:05:34;;;;;;;14.65;7.53;;;10.50;99.90;;;;;;5030774;28;20490;-77
2022/12/25 11:08:02;;;;;;;16.38;7.47;;;10.50;99.90;;;;;;5030722;28;20033;-77
2022/12/25 11:10:35;;;;;;;14.98;6.13;;;10.50;99.90;;;;;;5029015;28;20588;-77
2022/12/25 11:13:04;;;;;;;12.77;4.90;;;10.60;99.90;;;;;;5029923;28;20032;-77
2022/12/25 11:15:41;;;;;;;8.32;3.65;;;10.60;99.90;;;;;;5029397;28;20049;-77
2022/12/25 11:18:19;;;;;;;6.82;2.50;;;10.60;99.90;;;;;;5046506;28;20612;-77
2022/12/25 11:21:01;;;;;;;9.77;2.45;;;10.70;99.90;;;;;;5029106;28;20066;-77
2022/12/25 11:23:29;;;;;;;8.30;2.38;;;10.70;99.90;;;;;;5029915;28;20025;-76
2022/12/25 11:26:10;;;;;;;14.00;3.50;;;10.80;99.90;;;;;;5029774;28;20167;-76
2022/12/25 11:28:37;;;;;;;10.77;4.25;;;10.80;99.90;;;;;;5029527;28;20037;-77
2022/12/25 11:31:22;;;;;;;9.70;3.25;;;10.80;99.90;;;;;;5046370;28;20025;-76
2022/12/25 11:33:53;;;;;;;8.73;3.40;;;10.90;99.90;;;;;;5029273;28;20414;-77
2022/12/25 11:36:50;;;;;;;8.25;2.40;;;10.90;99.90;;;;;;5030348;28;20044;-77
2022/12/25 11:39:38;;;;;;;7.63;2.42;;;10.90;99.90;;;;;;5029482;28;20072;-78
2022/12/25 11:42:12;;;;;;;9.52;2.25;;;11.00;99.90;;;;;;5031506;28;20056;-74
2022/12/25 11:44:56;;;;;;;10.20;4.53;;;11.10;99.90;;;;;;5029499;28;20112;-77
2022/12/25 11:47:32;;;;;;;10.43;3.65;;;11.10;99.90;;;;;;5027856;28;20033;-77
2022/12/25 11:50:13;;;;;;;7.32;2.85;;;11.10;99.90;;;;;;5028853;28;20464;-76
2022/12/25 11:52:43;;;;;;;10.18;2.55;;;11.10;99.90;;;;;;5027688;28;20410;-76
2022/12/25 11:55:33;;;;;;;11.63;3.50;;;11.20;99.90;;;;;;5027051;28;20051;-76
2022/12/25 11:58:13;;;;;;;9.43;3.75;;;11.20;99.90;;;;;;5027490;28;20151;-77
2022/12/25 12:00:41;;;;;;;10.70;4.25;;;11.20;99.90;;;;;;5043613;28;20109;-77
2022/12/25 12:03:13;;;;;;;11.43;3.38;;;11.20;99.90;;;;;;5026868;28;20117;-76
2022/12/25 12:05:47;;;;;;;10.82;3.38;;;11.30;99.90;;;;;;5026624;28;20033;-76
2022/12/25 12:08:14;;;;;;;11.57;4.35;;;11.40;99.90;;;;;;5029576;28;20038;-76
2022/12/25 12:11:16;;;;;;;9.75;4.07;;;11.50;99.90;;;;;;5031116;28;20021;-76
2022/12/25 12:14:10;;;;;;;12.82;3.45;;;11.60;99.90;;;;;;5030988;28;20025;-76
2022/12/25 12:16:36;;;;;;;15.30;6.43;;;11.60;99.90;;;;;;5014671;28;20060;-75
2022/12/25 12:19:20;;;;;;;;;;;11.60;99.90;;;;;;5032528;28;20037;-76
2022/12/25 12:21:48;;;;;;;10.85;3.15;;;11.60;99.90;;;;;;5030798;28;19904;-76
2022/12/25 12:24:19;;;;;;;13.45;3.83;;;11.60;99.90;;;;;;5031652;28;20335;-76
2022/12/25 12:26:57;;;;;;;10.85;4.38;;;11.60;99.90;;;;;;5030972;28;20034;-75
2022/12/25 12:29:28;;;;;;;12.60;4.38;;;11.60;99.90;;;;;;5032103;28;20033;-77
2022/12/25 12:31:58;;;;;;;14.45;5.60;;;11.60;99.90;;;;;;5031784;28;20051;-76
2022/12/25 12:34:48;;;;;;;11.77;5.05;;;11.50;99.90;;;;;;5031632;28;20038;-76
2022/12/25 12:37:28;;;;;;;13.50;5.97;;;11.50;99.90;;;;;;5030440;28;20541;-76
2022/12/25 12:39:54;;;;;;;15.05;5.78;;;11.50;99.90;;;;;;5030658;28;20048;-76
2022/12/25 12:42:24;;;;;;;14.55;6.70;;;11.40;99.90;;;;;;5030465;28;20040;-76
2022/12/25 12:44:54;;;;;;;13.45;5.45;;;11.40;99.90;;;;;;5031959;28;20026;-77
2022/12/25 12:47:36;;;;;;;11.90;6.20;;;11.40;99.90;;;;;;5031848;28;20071;-76
2022/12/25 12:50:03;;;;;;;14.10;7.03;;;11.30;99.90;;;;;;5030571;28;20355;-76
2022/12/25 12:52:37;;;;;;;13.18;6.25;;;11.20;99.90;;;;;;5030479;28;20025;-75
2022/12/25 12:55:06;;;;;;;20.95;6.05;;;11.10;99.90;;;;;;5031643;28;20034;-76
2022/12/25 12:57:38;;;;;;;10.63;5.18;;;11.10;99.90;;;;;;5029416;28;20053;-76
2022/12/25 13:00:15;;;;;;;14.30;7.07;;;11.10;99.90;;;;;;5029358;28;20029;-76
2022/12/25 13:03:18;;;;;;;15.30;6.03;;;11.00;99.90;;;;;;5029434;28;20030;-76
2022/12/25 13:05:53;;;;;;;11.95;4.80;;;11.10;99.90;;;;;;5029290;28;20068;-77
2022/12/25 13:08:46;;;;;;;17.63;8.57;;;11.10;99.90;;;;;;5045856;28;20494;-75
2022/12/25 13:11:22;;;;;;;15.38;5.82;;;11.10;99.90;;;;;;5029464;28;20553;-78
2022/12/25 13:13:50;;;;;;;13.35;4.22;;;11.20;99.90;;;;;;5030270;28;20494;-77
2022/12/25 13:16:33;;;;;;;10.77;4.45;;;11.20;99.90;;;;;;5029058;28;20040;-77
2022/12/25 13:19:03;;;;;;;17.75;8.88;;;11.20;99.90;;;;;;5029584;28;20498;-76
2022/12/25 13:21:30;;;;;;;28.58;13.60;;;11.20;99.90;;;;;;5028980;28;20032;-77
2022/12/25 13:23:58;;;;;;;15.45;5.35;;;11.30;99.90;;;;;;5028703;28;20029;-76
2022/12/25 13:26:24;;;;;;;14.80;6.60;;;11.30;99.90;;;;;;5028694;28;20033;-76
2022/12/25 13:28:50;;;;;;;13.10;5.85;;;11.30;99.90;;;;;;5028755;28;20029;-78
2022/12/25 13:31:20;;;;;;;;;;;11.20;99.90;;;;;;5029364;28;20413;-77
2022/12/25 13:33:54;;;;;;;15.30;5.53;;;11.20;99.90;;;;;;5030019;28;19908;-77
2022/12/25 13:36:20;;;;;;;9.85;3.78;;;11.00;99.90;;;;;;5028997;28;20116;-77
2022/12/25 13:38:48;;;;;;;;;;;11.00;99.90;;;;;;5030961;28;20112;-77
2022/12/25 13:44:21;;;;;;;10.63;3.92;;;10.70;99.90;;;;;;5031468;28;20080;-77
2022/12/25 13:46:47;;;;;;;11.93;5.35;;;10.50;99.90;;;;;;5031619;28;20017;-77
2022/12/25 13:49:16;;;;;;;;;;;10.40;99.90;;;;;;5031839;28;20036;-79
2022/12/25 13:51:43;;;;;;;13.95;5.63;;;10.30;99.90;;;;;;5030180;28;19913;-77
2022/12/25 13:54:11;;;;;;;13.70;6.40;;;10.20;99.90;;;;;;5031558;28;20029;-77
2022/12/25 13:56:49;;;;;;;15.77;7.75;;;10.10;99.90;;;;;;5046646;28;20045;-77
2022/12/25 13:59:17;;;;;;;18.63;8.63;;;10.00;99.90;;;;;;5030989;28;20037;-77
2022/12/25 14:01:44;;;;;;;23.23;11.27;;;9.90;99.90;;;;;;5031159;28;20037;-77
2022/12/25 14:04:21;;;;;;;25.52;12.93;;;9.90;99.90;;;;;;5030614;28;20040;-77
2022/12/25 14:06:49;;;;;;;19.45;10.45;;;10.00;99.90;;;;;;5031914;28;20639;-75
2022/12/25 14:09:15;;;;;;;19.45;10.52;;;9.80;99.90;;;;;;5030292;28;20143;-77
2022/12/25 14:11:44;;;;;;;22.42;12.65;;;9.70;99.90;;;;;;5030633;28;20033;-75
2022/12/25 14:14:19;;;;;;;24.25;11.02;;;9.70;99.90;;;;;;5032866;28;20045;-75
2022/12/25 14:16:52;;;;;;;26.92;14.13;;;9.60;99.90;;;;;;5034082;28;20132;-75
2022/12/25 14:19:28;;;;;;;30.23;13.40;;;9.60;99.90;;;;;;5034612;28;20036;-75
2022/12/25 14:22:10;;;;;;;22.25;10.82;;;9.60;99.90;;;;;;5032145;28;20030;-75
2022/12/25 14:24:38;;;;;;;23.98;11.43;;;9.50;99.90;;;;;;5031715;28;20033;-75
2022/12/25 14:27:14;;;;;;;23.73;12.27;;;9.40;99.90;;;;;;5032016;28;20024;-76
2022/12/25 14:29:43;;;;;;;29.10;13.80;;;9.30;99.90;;;;;;5031837;28;20029;-75
2022/12/25 14:32:23;;;;;;;23.33;12.60;;;9.30;99.90;;;;;;5031331;28;20036;-74
2022/12/25 14:34:54;;;;;;;22.13;11.60;;;9.20;99.90;;;;;;5033142;28;20308;-75
2022/12/25 14:37:31;;;;;;;25.13;10.35;;;9.20;99.90;;;;;;5033777;28;20071;-75
2022/12/25 14:40:01;;;;;;;23.35;9.88;;;9.10;99.90;;;;;;5033660;28;20056;-76
2022/12/25 14:42:30;;;;;;;21.45;8.98;;;9.10;99.90;;;;;;5050528;28;20029;-75
2022/12/25 14:45:03;;;;;;;19.00;8.70;;;9.10;99.90;;;;;;5031912;28;20083;-75
2022/12/25 14:47:30;;;;;;;24.10;8.55;;;9.10;99.90;;;;;;5030666;28;20033;-75
2022/12/25 14:49:57;;;;;;;16.73;8.15;;;9.00;99.90;;;;;;5031798;28;20037;-75
2022/12/25 14:52:30;;;;;;;18.90;7.40;;;8.90;99.90;;;;;;5031899;28;20018;-75
2022/12/25 14:54:58;;;;;;;19.15;8.90;;;8.80;99.90;;;;;;5032524;28;20143;-74
2022/12/25 14:57:39;;;;;;;26.25;13.45;;;8.80;99.90;;;;;;5032024;28;20041;-75
2022/12/25 15:00:21;;;;;;;19.25;8.75;;;8.60;99.90;;;;;;5047114;28;20025;-75
2022/12/25 15:02:48;;;;;;;19.60;8.65;;;8.60;99.90;;;;;;5031331;28;20055;-75